Time;durP1;ratioP1;P1;durP2;ratioP2;P2;SDS_P1;SDS_P2;PMS_P1;PMS_P2;Temp;Humidity;BMP_temperature;BMP_pressure;BME280_temperature;BME280_humidity;BME280_pressure;Samples;Min_cycle;Max_cycle;Signal;HPM_P1;HPM_P2
2022/08/21 00:00:00;;;;;;;6.33;2.90;;;17.80;99.90;;;;;;5037401;28;20072;-77
2022/08/21 00:02:29;;;;;;;8.10;2.77;;;17.80;99.90;;;;;;5037008;28;20053;-77
2022/08/21 00:04:54;;;;;;;6.85;3.10;;;17.70;99.90;;;;;;5037067;28;20400;-77
2022/08/21 00:07:20;;;;;;;5.23;2.60;;;17.60;99.90;;;;;;5037180;28;20045;-77
2022/08/21 00:09:47;;;;;;;6.47;2.75;;;17.60;99.90;;;;;;5037173;28;20050;-77
2022/08/21 00:12:13;;;;;;;6.30;3.33;;;17.50;99.90;;;;;;5037197;28;20057;-76
2022/08/21 00:14:39;;;;;;;7.38;3.53;;;17.50;99.90;;;;;;5037454;28;20049;-76
2022/08/21 00:17:06;;;;;;;9.32;4.45;;;17.40;99.90;;;;;;5037340;28;20045;-76
2022/08/21 00:19:32;;;;;;;6.97;3.60;;;17.40;99.90;;;;;;5037067;28;20537;-77
2022/08/21 00:21:58;;;;;;;5.85;3.80;;;17.40;99.90;;;;;;5037034;28;20084;-76
2022/08/21 00:24:25;;;;;;;7.10;3.80;;;17.30;99.90;;;;;;5036860;28;20049;-77
2022/08/21 00:26:51;;;;;;;;;;;17.30;99.90;;;;;;5037219;28;20049;-76
2022/08/21 00:29:17;;;;;;;9.13;4.32;;;17.20;99.90;;;;;;5037111;28;19974;-76
2022/08/21 00:31:44;;;;;;;8.82;4.32;;;17.10;99.90;;;;;;5037093;28;20091;-76
2022/08/21 00:34:12;;;;;;;8.38;4.90;;;17.10;99.90;;;;;;5036926;28;20034;-76
2022/08/21 00:36:38;;;;;;;6.43;4.85;;;17.10;99.90;;;;;;5036529;28;20089;-77
2022/08/21 00:39:06;;;;;;;8.63;5.87;;;17.10;99.90;;;;;;5036602;28;20083;-76
2022/08/21 00:41:33;;;;;;;6.63;5.15;;;17.00;99.90;;;;;;5036372;28;20550;-76
2022/08/21 00:43:59;;;;;;;7.47;4.40;;;17.00;99.90;;;;;;5036536;28;20052;-77
2022/08/21 00:46:25;;;;;;;6.53;4.30;;;16.90;99.90;;;;;;5036526;28;20116;-77
2022/08/21 00:48:50;;;;;;;6.87;4.27;;;16.90;99.90;;;;;;5036402;28;20099;-77
2022/08/21 00:51:29;;;;;;;5.93;3.77;;;16.80;99.90;;;;;;5035392;28;20053;-77
2022/08/21 00:53:59;;;;;;;8.65;4.25;;;16.70;99.90;;;;;;5036274;28;20099;-77
2022/08/21 00:56:26;;;;;;;6.82;3.40;;;16.70;99.90;;;;;;5036440;28;20080;-77
2022/08/21 00:58:53;;;;;;;5.65;3.25;;;16.70;99.90;;;;;;5036089;28;20515;-76
2022/08/21 01:01:19;;;;;;;5.68;2.90;;;16.60;99.90;;;;;;5036180;28;20396;-77
2022/08/21 01:03:46;;;;;;;5.07;3.40;;;16.50;99.90;;;;;;5036154;28;20037;-77
2022/08/21 01:06:12;;;;;;;6.60;3.05;;;16.50;99.90;;;;;;5036006;28;20042;-77
2022/08/21 01:08:38;;;;;;;7.50;3.17;;;16.50;99.90;;;;;;5035150;28;20052;-76
2022/08/21 01:11:04;;;;;;;6.82;3.10;;;16.50;99.90;;;;;;5035723;28;20071;-77
2022/08/21 01:13:34;;;;;;;5.47;3.10;;;16.50;99.90;;;;;;5036177;28;20052;-77
2022/08/21 01:16:04;;;;;;;5.35;3.33;;;16.40;99.90;;;;;;5036068;28;20045;-77
2022/08/21 01:18:30;;;;;;;7.75;3.35;;;16.30;99.90;;;;;;5035755;28;20050;-76
2022/08/21 01:21:03;;;;;;;5.53;2.63;;;16.30;99.90;;;;;;5036074;28;20049;-77
2022/08/21 01:23:29;;;;;;;7.32;3.15;;;16.30;99.90;;;;;;5035593;28;20366;-77
2022/08/21 01:25:55;;;;;;;6.25;3.15;;;16.20;99.90;;;;;;5035810;28;20126;-76
2022/08/21 01:28:22;;;;;;;5.83;3.00;;;16.20;99.90;;;;;;5035829;28;20037;-77
2022/08/21 01:30:50;;;;;;;6.65;3.30;;;16.20;99.90;;;;;;5035734;28;20044;-76
2022/08/21 01:33:17;;;;;;;10.45;3.80;;;16.20;99.90;;;;;;5035602;28;20042;-77
2022/08/21 01:35:43;;;;;;;7.25;3.95;;;16.10;99.90;;;;;;5035356;28;20508;-77
2022/08/21 01:38:09;;;;;;;8.33;4.00;;;16.10;99.90;;;;;;5035506;28;20060;-77
2022/08/21 01:40:34;;;;;;;6.17;4.20;;;16.00;99.90;;;;;;5035583;28;20132;-77
2022/08/21 01:43:00;;;;;;;8.90;4.50;;;16.00;99.90;;;;;;5035478;28;20048;-77
2022/08/21 01:45:26;;;;;;;7.37;4.53;;;15.90;99.90;;;;;;5035361;28;20388;-77
2022/08/21 01:47:51;;;;;;;11.73;4.80;;;15.90;99.90;;;;;;5035287;28;20045;-77
2022/08/21 01:50:19;;;;;;;6.50;4.70;;;15.90;99.90;;;;;;5035255;28;20049;-76
2022/08/21 01:52:45;;;;;;;8.43;4.68;;;15.90;99.90;;;;;;5034727;28;20038;-77
2022/08/21 01:55:12;;;;;;;9.80;4.93;;;15.90;99.90;;;;;;5035208;28;20064;-76
2022/08/21 01:57:38;;;;;;;9.32;4.53;;;15.90;99.90;;;;;;5035174;28;20045;-77
2022/08/21 02:00:08;;;;;;;9.00;4.80;;;15.80;99.90;;;;;;5035120;28;20396;-77
2022/08/21 02:02:34;;;;;;;8.77;4.63;;;15.70;99.90;;;;;;5035140;28;20052;-76
2022/08/21 02:05:00;;;;;;;8.87;4.73;;;15.80;99.90;;;;;;5034099;28;20046;-77
2022/08/21 02:07:25;;;;;;;10.33;5.43;;;15.70;99.90;;;;;;5034948;28;20045;-76
2022/08/21 02:09:51;;;;;;;9.37;4.80;;;15.70;99.90;;;;;;5034999;28;20083;-77
2022/08/21 02:12:16;;;;;;;9.90;5.17;;;15.70;99.90;;;;;;5035089;28;20047;-77
2022/08/21 02:14:42;;;;;;;8.60;5.20;;;15.70;99.90;;;;;;5034866;28;20049;-77
2022/08/21 02:17:07;;;;;;;8.03;4.73;;;15.70;99.90;;;;;;5034502;28;20053;-77
2022/08/21 02:19:33;;;;;;;9.67;5.47;;;15.60;99.90;;;;;;5035512;28;20098;-77
2022/08/21 02:21:59;;;;;;;9.83;5.83;;;15.60;99.90;;;;;;5034972;28;20060;-77
2022/08/21 02:24:24;;;;;;;7.78;5.20;;;15.40;99.90;;;;;;5034503;28;20041;-77
2022/08/21 02:26:50;;;;;;;8.00;4.97;;;15.40;99.90;;;;;;5034499;28;20045;-76
2022/08/21 02:29:15;;;;;;;8.90;4.93;;;15.30;99.90;;;;;;5034206;28;20041;-77
2022/08/21 02:31:41;;;;;;;8.95;5.35;;;15.30;99.90;;;;;;5034144;28;20128;-77
2022/08/21 02:34:06;;;;;;;6.43;5.10;;;15.30;99.90;;;;;;5034776;28;20110;-77
2022/08/21 02:36:32;;;;;;;8.33;5.43;;;15.20;99.90;;;;;;5034352;28;20052;-77
2022/08/21 02:38:58;;;;;;;8.87;5.97;;;15.30;99.90;;;;;;5017442;28;20048;-76
2022/08/21 02:41:24;;;;;;;11.03;6.07;;;15.20;99.90;;;;;;5034343;28;20060;-76
2022/08/21 02:43:50;;;;;;;9.23;5.90;;;15.10;99.90;;;;;;5033278;28;20045;-77
2022/08/21 02:46:20;;;;;;;9.30;5.72;;;15.10;99.90;;;;;;5032981;28;20041;-76
2022/08/21 02:48:46;;;;;;;11.30;6.13;;;15.10;99.90;;;;;;5034347;28;20056;-76
2022/08/21 02:51:19;;;;;;;10.00;5.83;;;15.00;99.90;;;;;;5034246;28;20045;-76
2022/08/21 02:53:46;;;;;;;12.23;6.63;;;15.00;99.90;;;;;;5034489;28;20041;-77
2022/08/21 02:56:16;;;;;;;8.30;5.82;;;15.00;99.90;;;;;;5034251;28;20053;-76
2022/08/21 02:58:51;;;;;;;8.88;6.50;;;15.10;99.90;;;;;;5033913;28;20472;-76
2022/08/21 03:01:17;;;;;;;9.32;6.22;;;15.00;99.90;;;;;;5033192;28;20056;-76
2022/08/21 03:03:44;;;;;;;11.93;5.57;;;15.10;99.90;;;;;;5033890;28;20064;-77
2022/08/21 03:06:13;;;;;;;9.52;6.20;;;15.00;99.90;;;;;;5033860;28;20497;-77
2022/08/21 03:08:39;;;;;;;9.10;6.13;;;14.90;99.90;;;;;;5033972;28;20043;-77
2022/08/21 03:11:05;;;;;;;8.03;5.90;;;14.90;99.90;;;;;;5033818;28;20045;-77
2022/08/21 03:13:31;;;;;;;8.40;6.18;;;14.90;99.90;;;;;;5033885;28;20049;-77
2022/08/21 03:15:57;;;;;;;8.20;5.85;;;14.90;99.90;;;;;;5034261;28;20038;-77
2022/08/21 03:18:23;;;;;;;7.43;6.00;;;14.90;99.90;;;;;;5033673;28;20481;-77
2022/08/21 03:20:49;;;;;;;11.17;6.43;;;15.10;99.90;;;;;;5033873;28;20333;-77
2022/08/21 03:23:17;;;;;;;9.67;6.07;;;14.80;99.90;;;;;;5033735;28;20102;-77
2022/08/21 03:25:43;;;;;;;8.02;5.75;;;14.80;99.90;;;;;;5033764;28;20048;-76
2022/08/21 03:28:14;;;;;;;8.23;6.73;;;14.70;99.90;;;;;;5033501;28;20056;-77
2022/08/21 03:30:45;;;;;;;10.43;6.75;;;14.70;99.90;;;;;;5033707;28;20283;-76
2022/08/21 03:33:11;;;;;;;9.93;6.75;;;14.70;99.90;;;;;;5033642;28;20042;-77
2022/08/21 03:35:36;;;;;;;9.53;7.17;;;14.70;99.90;;;;;;5033707;28;20071;-77
2022/08/21 03:38:02;;;;;;;12.68;7.07;;;14.70;99.90;;;;;;5033648;28;20041;-77
2022/08/21 03:40:28;;;;;;;8.60;7.20;;;14.70;99.90;;;;;;5033658;28;20088;-76
2022/08/21 03:42:54;;;;;;;9.03;7.00;;;14.70;99.90;;;;;;5033531;28;20055;-76
2022/08/21 03:45:20;;;;;;;12.68;8.00;;;14.60;99.90;;;;;;5033665;28;20489;-77
2022/08/21 03:48:01;;;;;;;11.00;8.02;;;14.60;99.90;;;;;;5033599;28;20050;-77
2022/08/21 03:50:32;;;;;;;10.85;7.35;;;14.60;99.90;;;;;;5033817;28;20396;-77
2022/08/21 03:52:58;;;;;;;12.15;8.05;;;14.60;99.90;;;;;;5033614;28;20052;-77
2022/08/21 03:55:24;;;;;;;11.27;7.37;;;14.60;99.90;;;;;;5033811;28;20054;-77
2022/08/21 03:57:50;;;;;;;12.02;7.80;;;14.60;99.90;;;;;;5033526;28;20298;-77
2022/08/21 04:00:18;;;;;;;9.30;7.60;;;14.60;99.90;;;;;;5033792;28;20129;-77
2022/08/21 04:02:44;;;;;;;10.20;7.68;;;14.50;99.90;;;;;;5033755;28;20159;-77
2022/08/21 04:05:12;;;;;;;11.07;7.60;;;14.50;99.90;;;;;;5033467;28;20056;-77
2022/08/21 04:07:38;;;;;;;10.73;7.60;;;14.50;99.90;;;;;;5033310;28;20288;-76
2022/08/21 04:10:06;;;;;;;9.70;7.77;;;14.40;99.90;;;;;;5033033;28;20112;-76
2022/08/21 04:12:32;;;;;;;10.27;7.85;;;14.50;99.90;;;;;;5036129;28;20103;-76
2022/08/21 04:14:58;;;;;;;15.77;9.13;;;14.40;99.90;;;;;;5037064;28;20461;-77
2022/08/21 04:17:23;;;;;;;11.63;8.63;;;14.40;99.90;;;;;;5037177;28;20049;-77
2022/08/21 04:19:49;;;;;;;11.97;8.47;;;14.40;99.90;;;;;;5037051;28;20038;-77
2022/08/21 04:22:15;;;;;;;11.40;8.67;;;14.40;99.90;;;;;;5036881;28;20049;-76
2022/08/21 04:24:41;;;;;;;12.15;8.02;;;14.40;99.90;;;;;;5036978;28;20049;-77
2022/08/21 04:27:06;;;;;;;10.67;7.90;;;14.40;99.90;;;;;;5037175;28;20492;-76
2022/08/21 04:29:32;;;;;;;13.10;8.50;;;14.40;99.90;;;;;;5036789;28;20476;-77
2022/08/21 04:31:57;;;;;;;10.13;8.32;;;14.50;99.90;;;;;;5036925;28;20049;-76
2022/08/21 04:34:23;;;;;;;14.60;8.73;;;14.40;99.90;;;;;;5036432;28;20046;-77
2022/08/21 04:36:48;;;;;;;11.60;9.00;;;14.40;99.90;;;;;;5036690;28;20085;-76
2022/08/21 04:39:14;;;;;;;13.20;9.57;;;14.60;99.90;;;;;;5036575;28;20503;-76
2022/08/21 04:41:41;;;;;;;14.70;9.27;;;14.40;99.90;;;;;;5036961;28;20073;-77
2022/08/21 04:44:08;;;;;;;;;;;14.40;99.90;;;;;;5037168;28;20049;-76
2022/08/21 04:46:34;;;;;;;11.10;9.07;;;14.40;99.90;;;;;;5035958;28;19947;-77
2022/08/21 04:48:59;;;;;;;13.20;9.40;;;14.40;99.90;;;;;;5036607;28;20124;-76
2022/08/21 04:51:35;;;;;;;14.27;9.48;;;14.40;99.90;;;;;;5036382;28;20045;-76
2022/08/21 04:54:09;;;;;;;11.10;8.88;;;14.40;99.90;;;;;;5036439;28;20088;-76
2022/08/21 04:56:41;;;;;;;14.65;10.18;;;14.40;99.90;;;;;;5036302;28;20056;-77
2022/08/21 04:59:15;;;;;;;13.25;8.98;;;14.40;99.90;;;;;;5036057;28;20128;-77
2022/08/21 05:01:42;;;;;;;12.07;9.40;;;14.40;99.90;;;;;;5036153;28;20083;-76
2022/08/21 05:04:11;;;;;;;11.13;9.38;;;14.40;99.90;;;;;;5036055;28;20104;-76
2022/08/21 05:06:40;;;;;;;10.50;8.70;;;14.60;99.90;;;;;;5035773;28;20432;-77
2022/08/21 05:09:09;;;;;;;13.10;9.98;;;14.50;99.90;;;;;;5035949;28;20048;-76
2022/08/21 05:11:36;;;;;;;10.38;8.52;;;14.70;99.90;;;;;;5036001;28;20057;-76
2022/08/21 05:14:02;;;;;;;12.85;8.65;;;14.40;99.90;;;;;;5036009;28;20052;-77
2022/08/21 05:16:28;;;;;;;9.57;7.38;;;14.50;99.90;;;;;;5035999;28;20072;-77
2022/08/21 05:18:54;;;;;;;9.55;8.35;;;14.50;99.90;;;;;;5034837;28;20050;-76
2022/08/21 05:21:20;;;;;;;12.67;9.10;;;14.60;99.90;;;;;;5035921;28;20045;-76
2022/08/21 05:23:46;;;;;;;10.80;8.75;;;14.60;99.90;;;;;;5034719;28;20045;-76
2022/08/21 05:26:11;;;;;;;9.37;8.33;;;14.60;99.90;;;;;;5035846;28;20044;-76
2022/08/21 05:28:37;;;;;;;11.77;8.57;;;14.60;99.90;;;;;;5035983;28;20045;-77
2022/08/21 05:31:03;;;;;;;10.20;8.00;;;14.50;99.90;;;;;;5035453;28;20041;-77
2022/08/21 05:33:29;;;;;;;10.20;8.13;;;14.60;99.90;;;;;;5035618;28;20439;-76
2022/08/21 05:35:55;;;;;;;12.10;8.75;;;14.60;99.90;;;;;;5035617;28;20088;-77
2022/08/21 05:38:22;;;;;;;9.60;8.27;;;14.60;99.90;;;;;;5035430;28;20037;-76
2022/08/21 05:40:47;;;;;;;;;;;14.70;99.90;;;;;;5035904;28;20091;-76
2022/08/21 05:43:14;;;;;;;10.20;7.65;;;14.70;99.90;;;;;;5035447;28;19972;-76
2022/08/21 05:45:39;;;;;;;11.32;7.97;;;14.70;99.90;;;;;;5033841;28;20481;-76
2022/08/21 05:48:11;;;;;;;10.45;7.30;;;14.70;99.90;;;;;;5035197;28;20056;-76
2022/08/21 05:50:37;;;;;;;13.93;8.05;;;14.70;99.90;;;;;;5035457;28;20124;-76
2022/08/21 05:53:04;;;;;;;11.07;7.57;;;14.80;99.90;;;;;;5035294;28;20111;-77
2022/08/21 05:55:29;;;;;;;10.63;7.25;;;14.80;99.90;;;;;;5035480;28;20041;-76
2022/08/21 05:57:55;;;;;;;12.13;7.40;;;14.90;99.90;;;;;;5035201;28;20476;-76
2022/08/21 06:00:22;;;;;;;13.47;7.33;;;14.90;99.90;;;;;;5035108;28;20045;-77
2022/08/21 06:02:48;;;;;;;10.32;7.32;;;14.90;99.90;;;;;;5034844;28;20091;-77
2022/08/21 06:05:14;;;;;;;10.77;6.90;;;14.90;99.90;;;;;;5034994;28;20132;-77
2022/08/21 06:07:39;;;;;;;11.80;6.90;;;15.00;99.90;;;;;;5034774;28;20097;-77
2022/08/21 06:10:05;;;;;;;9.33;6.83;;;15.40;99.90;;;;;;5034514;28;20052;-77
2022/08/21 06:12:31;;;;;;;10.10;6.77;;;15.20;99.90;;;;;;5033603;28;20061;-77
2022/08/21 06:14:56;;;;;;;8.10;6.70;;;15.30;99.90;;;;;;5034887;28;20056;-77
2022/08/21 06:17:22;;;;;;;9.75;6.88;;;15.30;99.90;;;;;;5034357;28;20051;-77
2022/08/21 06:19:52;;;;;;;11.15;6.53;;;15.30;99.90;;;;;;5034718;28;20049;-77
2022/08/21 06:22:18;;;;;;;9.90;6.75;;;15.40;99.90;;;;;;5034798;28;20060;-76
2022/08/21 06:24:44;;;;;;;7.20;6.30;;;15.60;99.90;;;;;;5034161;28;20132;-76
2022/08/21 06:27:10;;;;;;;10.63;6.28;;;15.70;99.90;;;;;;5034382;28;20120;-77
2022/08/21 06:29:36;;;;;;;8.60;5.93;;;15.80;99.90;;;;;;5034537;28;20107;-77
2022/08/21 06:32:02;;;;;;;8.88;5.82;;;16.00;99.90;;;;;;5033021;28;20473;-77
2022/08/21 06:34:28;;;;;;;11.35;6.35;;;16.10;99.90;;;;;;5034114;28;20048;-76
2022/08/21 06:36:53;;;;;;;9.18;6.15;;;16.30;99.90;;;;;;5034199;28;20053;-76
2022/08/21 06:39:19;;;;;;;11.90;5.67;;;16.50;99.90;;;;;;5034111;28;20551;-76
2022/08/21 06:41:45;;;;;;;9.13;5.80;;;16.70;99.90;;;;;;5032919;28;20439;-76
2022/08/21 06:44:10;;;;;;;11.93;6.20;;;16.90;99.90;;;;;;5034067;28;20045;-77
2022/08/21 06:46:36;;;;;;;9.07;5.33;;;17.00;99.90;;;;;;5033989;28;20045;-77
2022/08/21 06:49:02;;;;;;;7.40;5.47;;;17.20;99.90;;;;;;5034005;28;20087;-77
2022/08/21 06:51:28;;;;;;;8.45;5.72;;;17.40;99.90;;;;;;5033984;28;20443;-77
2022/08/21 06:53:54;;;;;;;8.60;5.13;;;17.50;99.90;;;;;;5033946;28;20038;-77
2022/08/21 06:56:20;;;;;;;8.67;5.13;;;17.70;99.90;;;;;;5033933;28;20049;-77
2022/08/21 06:58:45;;;;;;;7.10;5.13;;;17.80;99.90;;;;;;5033756;28;20480;-78
2022/08/21 07:01:11;;;;;;;8.50;5.10;;;18.00;99.90;;;;;;5033777;28;20045;-77
2022/08/21 07:03:42;;;;;;;8.67;5.13;;;18.10;99.90;;;;;;5033698;28;20048;-76
2022/08/21 07:06:09;;;;;;;9.65;4.60;;;18.40;99.90;;;;;;5033056;28;20428;-77
2022/08/21 07:08:36;;;;;;;11.05;4.90;;;18.40;99.90;;;;;;5033773;28;20041;-77
2022/08/21 07:11:08;;;;;;;9.60;4.90;;;18.60;99.90;;;;;;5033840;28;20092;-77
2022/08/21 07:13:34;;;;;;;10.35;4.55;;;18.70;99.90;;;;;;5033860;28;20085;-77
2022/08/21 07:16:00;;;;;;;8.43;4.70;;;18.80;99.90;;;;;;5033664;28;20073;-76
2022/08/21 07:18:25;;;;;;;8.73;4.40;;;18.90;99.90;;;;;;5034131;28;20038;-76
2022/08/21 07:20:51;;;;;;;8.97;4.60;;;19.00;99.90;;;;;;5033680;28;20088;-76
2022/08/21 07:23:28;;;;;;;8.23;4.50;;;19.10;99.90;;;;;;5033423;28;20038;-76
2022/08/21 07:25:54;;;;;;;;;;;19.20;99.90;;;;;;5034055;28;20041;-77
2022/08/21 07:28:20;;;;;;;9.45;3.75;;;19.30;99.90;;;;;;5033500;28;19982;-76
2022/08/21 07:30:50;;;;;;;9.63;4.38;;;19.40;99.90;;;;;;5033626;28;20050;-76
2022/08/21 07:33:16;;;;;;;11.48;3.72;;;19.50;99.90;;;;;;5033557;28;20041;-77
2022/08/21 07:35:41;;;;;;;11.37;3.50;;;19.60;99.90;;;;;;5033507;28;20072;-76
2022/08/21 07:38:07;;;;;;;10.80;3.40;;;19.70;99.90;;;;;;5033497;28;20397;-77
2022/08/21 07:40:33;;;;;;;7.83;3.40;;;19.90;99.90;;;;;;5032425;28;20069;-77
2022/08/21 07:42:58;;;;;;;8.43;3.57;;;20.00;99.90;;;;;;5032999;28;20045;-78
2022/08/21 07:45:24;;;;;;;6.00;3.10;;;20.10;99.90;;;;;;5033406;28;20046;-76
2022/08/21 07:47:50;;;;;;;9.47;3.53;;;20.20;99.90;;;;;;5036040;28;20052;-78
2022/08/21 07:50:17;;;;;;;8.30;3.10;;;20.20;99.90;;;;;;5036597;28;20048;-76
2022/08/21 07:52:43;;;;;;;8.40;2.97;;;20.40;99.90;;;;;;5037483;28;20437;-76
2022/08/21 07:55:12;;;;;;;7.57;3.20;;;20.30;99.90;;;;;;5037246;28;20053;-78
2022/08/21 07:57:38;;;;;;;8.00;2.85;;;20.50;99.90;;;;;;5037211;28;20045;-77
2022/08/21 08:00:06;;;;;;;7.70;2.67;;;20.60;99.90;;;;;;5037223;28;20496;-78
2022/08/21 08:02:32;;;;;;;6.50;2.58;;;20.70;99.90;;;;;;5036846;28;20485;-78
2022/08/21 08:05:06;;;;;;;8.33;2.70;;;20.70;99.90;;;;;;5037331;28;20034;-78
2022/08/21 08:07:31;;;;;;;8.98;2.72;;;20.90;99.90;;;;;;5037156;28;20045;-77
2022/08/21 08:09:58;;;;;;;9.50;3.03;;;20.90;99.90;;;;;;5037144;28;20369;-78
2022/08/21 08:12:29;;;;;;;7.57;2.45;;;20.90;99.90;;;;;;5019150;28;20061;-78
2022/08/21 08:14:59;;;;;;;10.40;2.58;;;21.20;99.90;;;;;;5037394;28;20045;-77
2022/08/21 08:17:25;;;;;;;8.40;2.50;;;21.20;99.90;;;;;;5036816;28;20057;-77
2022/08/21 08:19:51;;;;;;;5.70;2.47;;;21.30;99.90;;;;;;5036834;28;20045;-78
2022/08/21 08:22:19;;;;;;;7.30;2.53;;;21.30;99.90;;;;;;5036854;28;20133;-78
2022/08/21 08:24:48;;;;;;;7.07;2.50;;;21.40;99.90;;;;;;5036848;28;20438;-78
2022/08/21 08:27:14;;;;;;;10.80;2.70;;;21.40;99.90;;;;;;5037082;28;20052;-77
2022/08/21 08:29:40;;;;;;;7.20;2.40;;;21.50;99.90;;;;;;5037278;28;20087;-78
2022/08/21 08:32:07;;;;;;;7.30;2.47;;;21.60;99.90;;;;;;5036004;28;20037;-77
2022/08/21 08:34:33;;;;;;;5.95;2.33;;;21.60;99.90;;;;;;5036627;28;20053;-78
2022/08/21 08:36:59;;;;;;;7.82;2.50;;;21.60;99.90;;;;;;5036710;28;20050;-78
2022/08/21 08:39:25;;;;;;;4.95;2.50;;;21.60;99.90;;;;;;5036608;28;20140;-77
2022/08/21 08:42:00;;;;;;;9.65;2.72;;;21.70;99.90;;;;;;5036503;28;20057;-77
2022/08/21 08:44:26;;;;;;;7.45;2.35;;;21.80;99.90;;;;;;5036738;28;20037;-78
2022/08/21 08:46:53;;;;;;;7.50;2.63;;;21.90;99.90;;;;;;5036413;28;20095;-77
2022/08/21 08:49:24;;;;;;;6.78;2.15;;;22.00;99.90;;;;;;5036530;28;20042;-77
2022/08/21 08:52:07;;;;;;;8.48;3.00;;;22.00;99.90;;;;;;5036858;28;20056;-78
2022/08/21 08:55:00;;;;;;;7.70;2.58;;;22.00;99.90;;;;;;5036985;28;20041;-78
2022/08/21 08:57:26;;;;;;;7.15;3.08;;;22.10;99.90;;;;;;5035598;28;20049;-78
2022/08/21 08:59:55;;;;;;;7.50;2.65;;;22.10;99.90;;;;;;5034896;28;20037;-77
2022/08/21 09:02:23;;;;;;;7.25;2.45;;;22.30;99.90;;;;;;5037293;28;20080;-77
2022/08/21 09:04:50;;;;;;;7.38;2.38;;;22.30;99.90;;;;;;5036252;28;20045;-77
2022/08/21 09:07:39;;;;;;;8.27;3.25;;;22.30;99.90;;;;;;5036282;28;20049;-77
2022/08/21 09:10:17;;;;;;;5.95;2.30;;;22.30;99.90;;;;;;5036424;28;20049;-77
2022/08/21 09:13:03;;;;;;;6.38;2.53;;;22.30;99.90;;;;;;5036285;28;20061;-77
2022/08/21 09:15:34;;;;;;;6.18;2.20;;;22.30;99.90;;;;;;5036093;28;20091;-78
2022/08/21 09:18:05;;;;;;;6.82;2.67;;;22.30;99.90;;;;;;5036253;28;20046;-77
2022/08/21 09:20:59;;;;;;;7.40;2.63;;;22.40;99.90;;;;;;5035850;28;20049;-78
2022/08/21 09:23:43;;;;;;;4.43;2.13;;;22.60;99.90;;;;;;5035721;28;20088;-78
2022/08/21 09:26:15;;;;;;;5.65;2.17;;;22.90;99.90;;;;;;5036125;28;20192;-77
2022/08/21 09:28:41;;;;;;;7.13;2.35;;;23.00;99.90;;;;;;5035867;28;20057;-78
2022/08/21 09:31:19;;;;;;;4.50;2.15;;;23.10;99.90;;;;;;5035017;28;20059;-77
2022/08/21 09:33:44;;;;;;;8.25;2.05;;;23.20;99.90;;;;;;5035751;28;20042;-78
2022/08/21 09:36:10;;;;;;;7.67;2.00;;;23.10;99.90;;;;;;5035082;28;20468;-78
2022/08/21 09:38:37;;;;;;;7.57;1.90;;;22.90;99.90;;;;;;5035954;28;20041;-76
2022/08/21 09:41:08;;;;;;;6.25;1.92;;;22.90;99.90;;;;;;5035952;28;20052;-77
2022/08/21 09:43:35;;;;;;;6.78;1.90;;;23.00;99.90;;;;;;5035761;28;20088;-76
2022/08/21 09:46:10;;;;;;;7.55;2.08;;;23.00;99.90;;;;;;5035584;28;20476;-77
2022/08/21 09:48:43;;;;;;;6.88;2.05;;;23.00;99.90;;;;;;5035270;28;20507;-77
2022/08/21 09:51:17;;;;;;;5.28;1.70;;;23.10;99.90;;;;;;5034975;28;20500;-76
2022/08/21 09:53:50;;;;;;;6.07;1.80;;;23.30;99.90;;;;;;5035283;28;20124;-76
2022/08/21 09:59:33;;;;;;;5.90;1.92;;;23.70;99.90;;;;;;5035072;28;20062;-77
2022/08/21 10:02:03;;;;;;;6.03;2.03;;;24.00;99.90;;;;;;5035311;28;20049;-76
2022/08/21 10:04:32;;;;;;;4.50;1.67;;;24.00;99.90;;;;;;5034947;28;20046;-77
2022/08/21 10:07:14;;;;;;;4.82;1.52;;;24.00;99.90;;;;;;5034999;28;20047;-77
2022/08/21 10:09:40;;;;;;;4.70;1.55;;;24.10;99.90;;;;;;5034428;28;20390;-76
2022/08/21 10:12:06;;;;;;;;;;;24.10;99.90;;;;;;5035318;28;20045;-77
2022/08/21 10:14:44;;;;;;;7.85;2.55;;;24.20;99.90;;;;;;5033870;28;19921;-79
2022/08/21 10:17:28;;;;;;;8.18;2.03;;;24.20;99.90;;;;;;5035036;28;20457;-77
2022/08/21 10:20:07;;;;;;;7.53;2.00;;;24.00;99.90;;;;;;5034764;28;20045;-78
2022/08/21 10:22:39;;;;;;;5.85;2.38;;;23.80;99.70;;;;;;5034805;28;20056;-77
2022/08/21 10:25:19;;;;;;;5.03;1.92;;;23.90;99.90;;;;;;5034600;28;20053;-77
2022/08/21 10:27:47;;;;;;;6.68;1.83;;;23.90;99.90;;;;;;5034742;28;20099;-77
2022/08/21 10:30:35;;;;;;;6.40;2.28;;;24.00;99.90;;;;;;5034522;28;20053;-78
2022/08/21 10:33:09;;;;;;;6.18;2.10;;;24.00;99.60;;;;;;5035072;28;20053;-78
2022/08/21 10:36:20;;;;;;;6.90;2.00;;;24.10;99.90;;;;;;5034548;28;20041;-78
2022/08/21 10:39:03;;;;;;;7.90;2.10;;;24.20;99.80;;;;;;5015113;28;20076;-77
2022/08/21 10:41:40;;;;;;;7.45;2.10;;;24.30;99.50;;;;;;5034590;28;20073;-78
2022/08/21 10:44:28;;;;;;;7.72;2.30;;;24.40;99.40;;;;;;5034410;28;20045;-77
2022/08/21 10:47:04;;;;;;;8.73;2.72;;;24.50;99.00;;;;;;5034355;28;20045;-78
2022/08/21 10:49:45;;;;;;;6.00;1.90;;;24.60;99.80;;;;;;5035072;28;20068;-77
2022/08/21 10:52:41;;;;;;;5.32;1.73;;;24.50;98.90;;;;;;5034359;28;20087;-78
2022/08/21 10:55:13;;;;;;;6.30;1.75;;;24.50;98.90;;;;;;5034350;28;20088;-78
2022/08/21 10:57:59;;;;;;;6.82;2.03;;;24.70;99.00;;;;;;5034199;28;20056;-77
2022/08/21 11:00:41;;;;;;;4.32;1.70;;;24.60;97.70;;;;;;5023204;28;20049;-78
2022/08/21 11:03:38;;;;;;;8.68;2.38;;;24.70;98.40;;;;;;5034134;28;20120;-78
2022/08/21 11:06:22;;;;;;;7.45;1.77;;;24.60;98.40;;;;;;5034668;28;20474;-78
2022/08/21 11:08:57;;;;;;;8.60;1.98;;;24.80;99.50;;;;;;5034566;28;20481;-78
2022/08/21 11:11:27;;;;;;;9.00;2.38;;;24.80;98.70;;;;;;5032628;28;20057;-78
2022/08/21 11:14:04;;;;;;;7.22;1.63;;;25.00;99.00;;;;;;5034084;28;20046;-78
2022/08/21 11:16:46;;;;;;;3.95;1.60;;;25.10;98.80;;;;;;5034034;28;20052;-78
2022/08/21 11:19:33;;;;;;;4.63;1.63;;;25.10;98.40;;;;;;5033802;28;20122;-78
2022/08/21 11:22:26;;;;;;;4.40;1.90;;;25.20;99.00;;;;;;5033172;28;20057;-78
2022/08/21 11:25:21;;;;;;;6.43;1.70;;;25.20;99.30;;;;;;5033690;28;20481;-78
2022/08/21 11:27:52;;;;;;;6.35;1.60;;;25.30;98.80;;;;;;5027755;28;20486;-77
2022/08/21 11:30:18;;;;;;;7.18;2.10;;;25.30;97.80;;;;;;5033678;28;20092;-78
2022/08/21 11:32:59;;;;;;;4.65;1.80;;;25.30;98.40;;;;;;5033713;28;20041;-77
2022/08/21 11:35:38;;;;;;;4.80;1.50;;;25.20;98.50;;;;;;5034119;28;20084;-78
2022/08/21 11:38:29;;;;;;;5.97;1.45;;;25.10;98.10;;;;;;5033100;28;20514;-77
2022/08/21 11:41:08;;;;;;;6.40;1.63;;;25.10;98.40;;;;;;5033634;28;20128;-77
2022/08/21 11:43:45;;;;;;;4.68;1.80;;;25.20;98.80;;;;;;5033380;28;20045;-78
2022/08/21 11:46:42;;;;;;;4.90;1.67;;;25.20;98.10;;;;;;5033841;28;20053;-78
2022/08/21 11:49:41;;;;;;;5.35;1.67;;;25.10;97.70;;;;;;5033637;28;20423;-78
2022/08/21 11:52:44;;;;;;;6.72;1.63;;;25.20;97.90;;;;;;5033151;28;20041;-77
2022/08/21 11:55:23;;;;;;;5.03;1.40;;;25.30;98.60;;;;;;5032889;28;20072;-78
2022/08/21 11:57:59;;;;;;;4.78;1.20;;;25.50;99.00;;;;;;5033448;28;20049;-78
2022/08/21 12:00:45;;;;;;;4.73;1.60;;;25.70;98.00;;;;;;5033637;28;20053;-77
2022/08/21 12:03:15;;;;;;;6.15;1.55;;;25.90;96.80;;;;;;5033292;28;20439;-78
2022/08/21 12:06:04;;;;;;;4.93;1.25;;;25.90;97.20;;;;;;5033336;28;20116;-77
2022/08/21 12:08:32;;;;;;;8.40;1.58;;;26.00;96.90;;;;;;5033236;28;20099;-77
2022/08/21 12:11:17;;;;;;;5.40;1.27;;;26.00;97.40;;;;;;5016178;28;20132;-77
2022/08/21 12:14:00;;;;;;;5.85;1.50;;;26.10;96.50;;;;;;5033452;28;20057;-78
2022/08/21 12:16:33;;;;;;;5.40;1.52;;;26.30;96.50;;;;;;5033461;28;20043;-77
2022/08/21 12:19:12;;;;;;;5.07;1.52;;;26.30;96.40;;;;;;5033126;28;20073;-78
2022/08/21 12:22:08;;;;;;;6.47;1.70;;;26.30;97.20;;;;;;5033142;28;20456;-78
2022/08/21 12:24:49;;;;;;;6.35;1.52;;;26.40;96.90;;;;;;5033041;28;20115;-77
2022/08/21 12:27:28;;;;;;;7.22;1.80;;;26.30;97.50;;;;;;5033207;28;20049;-78
2022/08/21 12:30:21;;;;;;;4.80;1.40;;;26.30;96.50;;;;;;5033216;28;20550;-78
2022/08/21 12:32:56;;;;;;;6.07;1.80;;;26.40;96.20;;;;;;5034295;28;20474;-78
2022/08/21 12:35:31;;;;;;;5.63;1.67;;;26.40;96.30;;;;;;5036651;28;20040;-78
2022/08/21 12:38:07;;;;;;;3.83;1.40;;;26.40;96.00;;;;;;5036442;28;20045;-78
2022/08/21 12:40:40;;;;;;;5.65;1.30;;;26.40;95.60;;;;;;5036675;28;20037;-77
2022/08/21 12:43:14;;;;;;;7.55;1.80;;;26.50;95.20;;;;;;5036469;28;20041;-78
2022/08/21 12:45:46;;;;;;;6.47;1.77;;;26.40;95.40;;;;;;5036434;28;20120;-78
2022/08/21 12:48:21;;;;;;;5.22;1.35;;;26.20;95.80;;;;;;5036244;28;20052;-78
2022/08/21 12:51:00;;;;;;;6.85;1.70;;;26.00;96.00;;;;;;5036518;28;20459;-78
2022/08/21 12:53:47;;;;;;;6.70;1.42;;;26.10;95.90;;;;;;5036630;28;20048;-78
2022/08/21 12:56:17;;;;;;;5.53;1.48;;;26.20;96.30;;;;;;5035216;28;20048;-78
2022/08/21 12:58:56;;;;;;;4.82;1.60;;;26.40;96.40;;;;;;5036011;28;20119;-77
2022/08/21 13:01:30;;;;;;;4.18;1.23;;;26.40;96.00;;;;;;5036086;28;20052;-78
2022/08/21 13:04:00;;;;;;;5.18;1.45;;;26.40;95.70;;;;;;5035723;28;20104;-78